Terminal Aerodrome Forecast
Issued by NWS

Home | Current Version | Previous Version | Text Only | Print | Product List | Glossary On
Versions: 1 2 3 4 5 6 7 8 9 10 11 12 13 14 15 16 17 18 19 20 21 22 23 24 25 26 27
000
FTUS41 KBUF 301734
TAFIAG
TAF
KIAG 301734Z 3018/0118 08015KT P6SM BKN035
     FM302200 06011KT P6SM VCSH BKN050
     FM010400 13005KT P6SM VCSH OVC012 WS020/21045KT
     FM010600 VRB03KT P6SM OVC012 WS020/22050KT
     FM011300 17009KT P6SM OVC035=

USA.gov is the U.S. government's official web portal to all federal, state and local government web resources and services.